createdAt,value
2023-05-19T00:02:21.822Z,10.60
2023-05-19T00:04:49.752Z,10.60
2023-05-19T00:07:20.772Z,10.60
2023-05-19T00:09:47.833Z,10.10
2023-05-19T00:12:15.097Z,10.50
2023-05-19T00:14:42.226Z,10.50
2023-05-19T00:17:09.279Z,10.50
2023-05-19T00:19:36.141Z,10.50
2023-05-19T00:22:02.893Z,10.50
2023-05-19T00:24:29.719Z,10.70
2023-05-19T00:26:56.576Z,10.50
2023-05-19T00:29:23.299Z,13.70
2023-05-19T00:31:50.290Z,10.40
2023-05-19T00:34:17.313Z,10.30
2023-05-19T00:36:44.020Z,10.30
2023-05-19T00:39:10.820Z,10.20
2023-05-19T00:41:37.432Z,10.20
2023-05-19T00:44:04.263Z,10.10
2023-05-19T00:46:31.052Z,10.10
2023-05-19T00:48:58.055Z,10.00
2023-05-19T00:51:26.012Z,12.10
2023-05-19T00:53:53.152Z,9.90
2023-05-19T00:56:20.048Z,9.90
2023-05-19T00:58:46.858Z,9.90
2023-05-19T01:01:14.630Z,9.80
2023-05-19T01:03:43.158Z,9.80
2023-05-19T01:06:10.185Z,9.70
2023-05-19T01:08:37.627Z,9.70
2023-05-19T01:11:05.604Z,9.60
2023-05-19T01:13:32.995Z,9.60
2023-05-19T01:16:02.942Z,9.60
2023-05-19T01:18:35.104Z,9.60
2023-05-19T01:21:15.986Z,12.00
2023-05-19T01:23:49.496Z,9.60
2023-05-19T01:26:23.635Z,9.50
2023-05-19T01:29:02.669Z,12.70
2023-05-19T01:31:29.713Z,9.50
2023-05-19T01:33:57.063Z,11.40
2023-05-19T01:36:26.059Z,9.50
2023-05-19T01:38:54.733Z,10.60
2023-05-19T01:41:22.554Z,12.10
2023-05-19T01:43:49.854Z,9.50
2023-05-19T01:46:18.238Z,9.50
2023-05-19T01:48:45.208Z,9.50
2023-05-19T01:51:12.020Z,11.80
2023-05-19T01:53:38.775Z,9.50
2023-05-19T01:56:06.117Z,10.70
2023-05-19T01:58:44.758Z,9.50
2023-05-19T02:01:11.539Z,9.50
2023-05-19T02:03:46.598Z,9.40
2023-05-19T02:06:22.759Z,9.50
2023-05-19T02:08:52.572Z,9.40
2023-05-19T02:11:39.942Z,9.40
2023-05-19T02:14:12.641Z,9.40
2023-05-19T02:16:39.527Z,9.40
2023-05-19T02:19:06.313Z,9.40
2023-05-19T02:21:33.723Z,9.40
2023-05-19T02:24:00.895Z,9.30
2023-05-19T02:26:27.649Z,9.40
2023-05-19T02:28:54.554Z,9.30
2023-05-19T02:31:21.714Z,9.30
2023-05-19T02:33:48.474Z,9.30
2023-05-19T02:36:15.291Z,9.20
2023-05-19T02:38:42.104Z,9.20
2023-05-19T02:41:08.893Z,9.20
2023-05-19T02:43:35.699Z,9.20
2023-05-19T02:46:02.541Z,9.20
2023-05-19T02:48:29.328Z,9.10
2023-05-19T02:50:56.079Z,9.10
2023-05-19T02:53:22.813Z,9.10
2023-05-19T02:55:49.537Z,9.10
2023-05-19T02:58:16.474Z,9.10
2023-05-19T03:00:45.353Z,9.10
2023-05-19T03:03:12.193Z,9.10
2023-05-19T03:05:38.959Z,9.10
2023-05-19T03:08:06.321Z,9.10
2023-05-19T03:10:33.176Z,9.10
2023-05-19T03:13:00.127Z,9.10
2023-05-19T03:15:26.834Z,12.70
2023-05-19T03:17:53.705Z,11.30
2023-05-19T03:20:20.995Z,9.10
2023-05-19T03:22:47.810Z,9.10
2023-05-19T03:25:14.657Z,9.10
2023-05-19T03:27:41.352Z,9.00
2023-05-19T03:30:09.061Z,9.00
2023-05-19T03:32:38.932Z,9.00
2023-05-19T03:35:05.780Z,9.00
2023-05-19T03:37:35.706Z,9.00
2023-05-19T03:40:02.553Z,9.00
2023-05-19T03:42:29.813Z,9.00
2023-05-19T03:44:56.647Z,9.00
2023-05-19T03:47:23.463Z,9.00
2023-05-19T03:49:50.328Z,9.00
2023-05-19T03:52:17.708Z,9.00
2023-05-19T03:54:45.056Z,9.00
2023-05-19T03:57:12.013Z,9.00
2023-05-19T03:59:38.961Z,9.00
2023-05-19T04:02:06.089Z,9.20
2023-05-19T04:04:33.554Z,9.00
2023-05-19T04:07:00.670Z,9.10
2023-05-19T04:09:27.363Z,9.00
2023-05-19T04:11:54.105Z,9.10
2023-05-19T04:14:21.305Z,9.10
2023-05-19T04:16:48.281Z,11.90
2023-05-19T04:19:15.311Z,9.10
2023-05-19T04:21:42.047Z,9.20
2023-05-19T04:24:09.042Z,7.50
2023-05-19T04:26:36.210Z,9.20
2023-05-19T04:29:04.881Z,9.20
2023-05-19T04:31:31.728Z,9.20
2023-05-19T04:33:58.551Z,10.70
2023-05-19T04:36:25.576Z,9.20
2023-05-19T04:38:55.039Z,9.20
2023-05-19T04:41:22.005Z,9.30
2023-05-19T04:43:50.257Z,9.30
2023-05-19T04:46:17.181Z,9.30
2023-05-19T04:48:44.439Z,9.30
2023-05-19T04:51:14.628Z,12.40
2023-05-19T04:53:41.910Z,9.40
2023-05-19T04:56:09.550Z,9.40
2023-05-19T04:58:36.315Z,9.40
2023-05-19T05:01:03.980Z,9.50
2023-05-19T05:03:31.211Z,9.50
2023-05-19T05:05:58.972Z,9.60
2023-05-19T05:08:25.725Z,9.70
2023-05-19T05:10:52.738Z,9.80
2023-05-19T05:13:21.333Z,9.90
2023-05-19T05:15:48.124Z,10.00
2023-05-19T05:18:15.746Z,10.10
2023-05-19T05:20:43.206Z,10.30
2023-05-19T05:23:10.576Z,10.40
2023-05-19T05:25:37.494Z,10.40
2023-05-19T05:28:05.455Z,10.40
2023-05-19T05:30:33.545Z,10.30
2023-05-19T05:33:00.473Z,10.40
2023-05-19T05:35:28.299Z,10.40
2023-05-19T05:37:55.200Z,10.40
2023-05-19T05:40:21.962Z,10.80
2023-05-19T05:42:48.792Z,10.30
2023-05-19T05:45:15.620Z,11.80
2023-05-19T05:47:42.803Z,10.40
2023-05-19T05:50:10.139Z,10.50
2023-05-19T05:52:37.429Z,10.50
2023-05-19T05:55:05.878Z,10.50
2023-05-19T05:57:35.470Z,10.50
2023-05-19T06:00:02.445Z,10.50
2023-05-19T06:02:30.284Z,10.50
2023-05-19T06:04:57.488Z,10.40
2023-05-19T06:07:24.861Z,13.00
2023-05-19T06:09:51.654Z,10.50
2023-05-19T06:12:18.726Z,10.50
2023-05-19T06:14:45.483Z,10.60
2023-05-19T06:17:12.212Z,10.70
2023-05-19T06:19:39.177Z,10.80
2023-05-19T06:22:05.938Z,10.80
2023-05-19T06:24:33.022Z,11.00
2023-05-19T06:26:59.768Z,11.00
2023-05-19T06:29:26.520Z,11.20
2023-05-19T06:31:53.370Z,11.20
2023-05-19T06:34:21.188Z,11.20
2023-05-19T06:36:47.935Z,14.70
2023-05-19T06:39:14.669Z,11.40
2023-05-19T06:41:41.728Z,11.40
2023-05-19T06:44:11.444Z,13.70
2023-05-19T06:46:38.310Z,11.50
2023-05-19T06:49:05.173Z,11.60
2023-05-19T06:51:32.197Z,11.70
2023-05-19T06:53:59.106Z,10.20
2023-05-19T06:56:26.103Z,13.60
2023-05-19T06:58:52.851Z,14.80
2023-05-19T07:01:19.738Z,12.00
2023-05-19T07:03:46.827Z,14.90
2023-05-19T07:06:13.936Z,13.50
2023-05-19T07:08:40.752Z,13.70
2023-05-19T07:11:07.962Z,12.40
2023-05-19T07:13:34.704Z,14.60
2023-05-19T07:16:01.443Z,12.30
2023-05-19T07:18:32.000Z,14.10
2023-05-19T07:20:59.128Z,12.30
2023-05-19T07:23:25.816Z,12.30
2023-05-19T07:25:59.015Z,12.40
2023-05-19T07:28:25.869Z,12.50
2023-05-19T07:30:53.463Z,12.60
2023-05-19T07:33:20.227Z,12.60
2023-05-19T07:35:47.115Z,12.70
2023-05-19T07:38:16.778Z,12.60
2023-05-19T07:40:43.445Z,12.60
2023-05-19T07:43:11.462Z,14.10
2023-05-19T07:45:38.548Z,12.70
2023-05-19T07:48:05.385Z,13.00
2023-05-19T07:50:32.470Z,12.70
2023-05-19T07:52:59.472Z,12.70
2023-05-19T07:55:26.461Z,13.80
2023-05-19T07:57:53.181Z,14.70
2023-05-19T08:00:20.467Z,12.60
2023-05-19T08:02:47.387Z,12.50
2023-05-19T08:05:14.340Z,12.60
2023-05-19T08:07:41.408Z,12.70
2023-05-19T08:10:08.230Z,12.60
2023-05-19T08:12:35.325Z,12.60
2023-05-19T08:15:02.403Z,13.30
2023-05-19T08:17:29.171Z,12.50
2023-05-19T08:19:55.939Z,12.50
2023-05-19T08:22:22.869Z,12.60
2023-05-19T08:24:52.852Z,12.50
2023-05-19T08:27:19.681Z,13.30
2023-05-19T08:29:46.709Z,13.80
2023-05-19T08:32:13.631Z,13.70
2023-05-19T08:34:41.273Z,12.90
2023-05-19T08:37:08.115Z,13.00
2023-05-19T08:39:35.051Z,13.20
2023-05-19T08:42:02.690Z,13.40
2023-05-19T08:44:30.970Z,15.00
2023-05-19T08:47:00.768Z,13.70
2023-05-19T08:49:31.008Z,13.90
2023-05-19T08:52:01.491Z,15.20
2023-05-19T08:54:34.390Z,13.90
2023-05-19T08:57:02.435Z,16.00
2023-05-19T08:59:29.227Z,13.80
2023-05-19T09:01:59.128Z,13.70
2023-05-19T09:04:30.073Z,16.50
2023-05-19T09:06:59.053Z,13.60
2023-05-19T09:09:35.029Z,13.50
2023-05-19T09:12:01.963Z,13.50
2023-05-19T09:14:29.417Z,13.60
2023-05-19T09:16:56.577Z,13.60
2023-05-19T09:19:23.427Z,13.60
2023-05-19T09:21:58.878Z,16.30
2023-05-19T09:24:26.031Z,13.60
2023-05-19T09:26:56.085Z,13.60
2023-05-19T09:29:24.430Z,14.10
2023-05-19T09:31:52.080Z,13.40
2023-05-19T09:34:19.555Z,13.40
2023-05-19T09:36:50.015Z,14.10
2023-05-19T09:39:17.884Z,13.40
2023-05-19T09:41:45.164Z,13.40
2023-05-19T09:44:24.191Z,13.40
2023-05-19T09:46:51.886Z,13.50
2023-05-19T09:49:19.092Z,15.70
2023-05-19T09:51:45.983Z,15.20
2023-05-19T09:54:16.597Z,13.60
2023-05-19T09:56:43.559Z,13.50
2023-05-19T09:59:10.551Z,13.60
2023-05-19T10:01:40.551Z,13.70
2023-05-19T10:04:07.676Z,15.20
2023-05-19T10:06:34.732Z,14.80
2023-05-19T10:09:02.087Z,13.50
2023-05-19T10:11:30.262Z,13.50
2023-05-19T10:13:57.182Z,13.50
2023-05-19T10:16:27.104Z,13.50
2023-05-19T10:18:55.144Z,13.30
2023-05-19T10:21:22.541Z,13.20
2023-05-19T10:23:49.276Z,13.10
2023-05-19T10:26:16.778Z,13.20
2023-05-19T10:28:45.103Z,13.20
2023-05-19T10:31:13.664Z,13.30
2023-05-19T10:34:01.216Z,13.30
2023-05-19T10:36:39.328Z,13.10
2023-05-19T10:39:07.834Z,13.20
2023-05-19T10:41:51.266Z,13.20
2023-05-19T10:44:31.628Z,13.20
2023-05-19T10:46:58.470Z,13.20
2023-05-19T10:49:25.493Z,13.20
2023-05-19T10:51:52.848Z,13.10
2023-05-19T10:54:39.199Z,13.10
2023-05-19T10:57:07.117Z,13.10
2023-05-19T10:59:35.109Z,13.00
2023-05-19T11:02:05.810Z,13.10
2023-05-19T11:04:39.581Z,13.00
2023-05-19T11:07:09.196Z,13.00
2023-05-19T11:09:42.245Z,13.60
2023-05-19T11:12:10.888Z,13.00
2023-05-19T11:14:38.061Z,12.90
2023-05-19T11:17:05.907Z,13.00
2023-05-19T11:19:35.791Z,13.00
2023-05-19T11:22:08.576Z,13.00
2023-05-19T11:24:40.216Z,13.00
2023-05-19T11:27:26.697Z,13.10
2023-05-19T11:29:54.250Z,13.10
2023-05-19T11:32:22.043Z,13.20
2023-05-19T11:34:50.256Z,13.20
2023-05-19T11:37:17.170Z,13.50
2023-05-19T11:39:45.422Z,13.30
2023-05-19T11:42:12.376Z,13.40
2023-05-19T11:44:41.163Z,13.40
2023-05-19T11:47:08.721Z,13.40
2023-05-19T11:49:35.724Z,15.90
2023-05-19T11:52:03.220Z,13.40
2023-05-19T11:54:32.314Z,16.40
2023-05-19T11:57:05.950Z,16.60
2023-05-19T11:59:34.959Z,13.60
2023-05-19T12:02:06.393Z,13.50
2023-05-19T12:04:35.885Z,14.00
2023-05-19T12:07:02.634Z,13.50
2023-05-19T12:09:30.083Z,13.70
2023-05-19T12:11:56.962Z,14.60
2023-05-19T12:14:23.753Z,13.50
2023-05-19T12:16:50.500Z,15.30
2023-05-19T12:19:17.424Z,13.60
2023-05-19T12:21:45.007Z,13.50
2023-05-19T12:24:11.839Z,14.70
2023-05-19T12:26:38.485Z,15.50
2023-05-19T12:29:06.772Z,13.50
2023-05-19T12:31:34.982Z,13.60
2023-05-19T12:34:02.405Z,13.60
2023-05-19T12:36:29.572Z,13.60
2023-05-19T12:38:56.335Z,13.60
2023-05-19T12:41:24.273Z,13.60
2023-05-19T12:43:51.111Z,14.80
2023-05-19T12:46:18.828Z,14.50
2023-05-19T12:48:46.130Z,14.30
2023-05-19T12:51:16.780Z,13.80
2023-05-19T12:53:44.047Z,13.40
2023-05-19T12:56:17.209Z,13.40
2023-05-19T12:58:44.087Z,13.30
2023-05-19T13:01:17.985Z,13.30
2023-05-19T13:03:45.223Z,13.20
2023-05-19T13:06:12.345Z,13.60
2023-05-19T13:08:40.425Z,14.30
2023-05-19T13:11:07.159Z,13.20
2023-05-19T13:13:34.060Z,13.70
2023-05-19T13:16:00.779Z,13.20
2023-05-19T13:18:27.985Z,13.30
2023-05-19T13:20:54.753Z,13.30
2023-05-19T13:23:21.830Z,13.40
2023-05-19T13:25:49.579Z,15.80
2023-05-19T13:28:16.379Z,13.50
2023-05-19T13:30:43.886Z,13.30
2023-05-19T13:33:12.034Z,13.30
2023-05-19T13:35:39.180Z,15.00
2023-05-19T13:38:07.015Z,11.30
2023-05-19T13:40:35.119Z,16.10
2023-05-19T13:43:02.608Z,13.20
2023-05-19T13:45:29.433Z,13.30
2023-05-19T13:47:56.489Z,13.30
2023-05-19T13:50:23.248Z,15.10
2023-05-19T13:52:50.013Z,13.20
2023-05-19T13:55:16.897Z,13.40
2023-05-19T13:57:44.360Z,13.40
2023-05-19T14:00:11.496Z,14.70
2023-05-19T14:02:38.328Z,13.80
2023-05-19T14:05:06.340Z,13.80
2023-05-19T14:07:35.355Z,13.90
2023-05-19T14:10:02.691Z,15.10
2023-05-19T14:12:38.075Z,15.30
2023-05-19T14:15:11.546Z,17.20
2023-05-19T14:17:38.741Z,14.00
2023-05-19T14:20:05.968Z,14.00
2023-05-19T14:22:32.622Z,14.10
2023-05-19T14:25:00.678Z,14.10
2023-05-19T14:27:27.500Z,14.20
2023-05-19T14:29:54.238Z,14.00
2023-05-19T14:32:21.233Z,14.10
2023-05-19T14:34:47.937Z,14.00
2023-05-19T14:37:14.766Z,15.60
2023-05-19T14:39:41.583Z,13.80
2023-05-19T14:42:08.362Z,13.80
2023-05-19T14:44:35.269Z,13.80
2023-05-19T14:47:02.021Z,13.50
2023-05-19T14:49:29.036Z,13.90
2023-05-19T14:51:56.094Z,14.60
2023-05-19T14:54:22.762Z,13.70
2023-05-19T14:56:49.527Z,14.60
2023-05-19T14:59:16.444Z,13.60
2023-05-19T15:01:43.278Z,13.60
2023-05-19T15:04:10.313Z,13.70
2023-05-19T15:06:37.092Z,13.60
2023-05-19T15:09:03.841Z,14.30
2023-05-19T15:11:30.757Z,13.50
2023-05-19T15:13:57.407Z,12.20
2023-05-19T15:16:24.309Z,15.80
2023-05-19T15:18:51.769Z,13.60
2023-05-19T15:21:19.254Z,13.60
2023-05-19T15:23:46.324Z,15.00
2023-05-19T15:26:13.452Z,13.60
2023-05-19T15:28:40.201Z,15.10
2023-05-19T15:31:07.094Z,13.80
2023-05-19T15:33:33.937Z,13.60
2023-05-19T15:36:00.564Z,15.10
2023-05-19T15:38:28.481Z,15.30
2023-05-19T15:40:56.691Z,13.60
2023-05-19T15:43:23.539Z,13.60
2023-05-19T15:45:52.568Z,13.60
2023-05-19T15:48:19.472Z,13.60
2023-05-19T15:50:46.542Z,13.60
2023-05-19T15:53:13.476Z,13.50
2023-05-19T15:55:40.299Z,13.60
2023-05-19T15:58:09.012Z,14.30
2023-05-19T16:00:35.977Z,13.60
2023-05-19T16:03:03.234Z,13.50
2023-05-19T16:05:30.452Z,13.50
2023-05-19T16:07:57.289Z,14.10
2023-05-19T16:10:24.063Z,13.90
2023-05-19T16:12:50.966Z,13.50
2023-05-19T16:15:17.718Z,14.60
2023-05-19T16:17:44.600Z,13.60
2023-05-19T16:20:11.515Z,13.60
2023-05-19T16:22:38.268Z,13.60
2023-05-19T16:25:05.296Z,14.90
2023-05-19T16:27:32.092Z,13.60
2023-05-19T16:30:00.994Z,13.60
2023-05-19T16:32:27.701Z,13.60
2023-05-19T16:34:54.416Z,14.30
2023-05-19T16:37:21.135Z,13.60
2023-05-19T16:39:48.427Z,14.90
2023-05-19T16:42:15.332Z,13.70
2023-05-19T16:44:42.585Z,13.70
2023-05-19T16:47:09.438Z,13.90
2023-05-19T16:49:36.296Z,13.80
2023-05-19T16:52:03.094Z,13.80
2023-05-19T16:54:29.767Z,13.80
2023-05-19T16:56:57.706Z,15.20
2023-05-19T16:59:24.352Z,13.80
2023-05-19T17:01:51.626Z,13.80
2023-05-19T17:04:18.370Z,13.90
2023-05-19T17:06:46.507Z,14.90
2023-05-19T17:09:13.499Z,16.00
2023-05-19T17:11:40.186Z,13.80
2023-05-19T17:14:09.128Z,13.90
2023-05-19T17:16:36.298Z,14.00
2023-05-19T17:19:03.253Z,13.90
2023-05-19T17:21:30.499Z,13.90
2023-05-19T17:23:57.309Z,14.40
2023-05-19T17:26:24.046Z,14.00
2023-05-19T17:28:50.746Z,15.60
2023-05-19T17:31:17.753Z,13.90
2023-05-19T17:33:44.836Z,15.10
2023-05-19T17:36:11.473Z,13.90
2023-05-19T17:38:40.480Z,14.00
2023-05-19T17:41:10.958Z,14.40
2023-05-19T17:43:38.110Z,13.80
2023-05-19T17:46:05.186Z,15.00
2023-05-19T17:48:32.181Z,13.70
2023-05-19T17:50:59.123Z,14.40
2023-05-19T17:53:26.494Z,13.60
2023-05-19T17:55:56.028Z,13.60
2023-05-19T17:58:22.857Z,14.30
2023-05-19T18:00:49.891Z,13.50
2023-05-19T18:03:17.048Z,13.40
2023-05-19T18:05:44.946Z,13.40
2023-05-19T18:08:13.072Z,13.40
2023-05-19T18:10:41.039Z,13.40
2023-05-19T18:13:08.989Z,13.30
2023-05-19T18:15:36.218Z,14.40
2023-05-19T18:18:05.577Z,13.10
2023-05-19T18:20:33.986Z,15.20
2023-05-19T18:23:01.065Z,13.20
2023-05-19T18:25:27.685Z,13.00
2023-05-19T18:27:55.891Z,14.40
2023-05-19T18:30:23.027Z,13.10
2023-05-19T18:32:49.923Z,14.50
2023-05-19T18:35:16.926Z,12.10
2023-05-19T18:37:43.837Z,12.00
2023-05-19T18:40:10.823Z,12.10
2023-05-19T18:42:37.944Z,12.00
2023-05-19T18:45:04.948Z,12.00
2023-05-19T18:47:31.936Z,11.90
2023-05-19T18:49:59.056Z,14.40
2023-05-19T18:52:27.195Z,11.70
2023-05-19T18:54:54.627Z,11.70
2023-05-19T18:57:21.359Z,11.60
2023-05-19T18:59:48.040Z,11.60
2023-05-19T19:02:14.921Z,13.50
2023-05-19T19:04:41.768Z,11.50
2023-05-19T19:07:08.495Z,13.30
2023-05-19T19:09:35.313Z,12.90
2023-05-19T19:12:02.200Z,12.20
2023-05-19T19:14:29.094Z,13.60
2023-05-19T19:16:56.122Z,13.80
2023-05-19T19:19:23.794Z,11.20
2023-05-19T19:21:50.738Z,12.70
2023-05-19T19:24:17.567Z,12.30
2023-05-19T19:26:44.556Z,11.00
2023-05-19T19:29:11.465Z,13.20
2023-05-19T19:31:38.162Z,10.80
2023-05-19T19:34:09.355Z,10.60
2023-05-19T19:36:36.246Z,10.60
2023-05-19T19:39:03.247Z,10.40
2023-05-19T19:41:30.360Z,10.30
2023-05-19T19:43:57.006Z,12.10
2023-05-19T19:46:23.629Z,10.20
2023-05-19T19:48:51.261Z,12.40
2023-05-19T19:51:18.532Z,10.00
2023-05-19T19:53:45.220Z,10.20
2023-05-19T19:56:11.858Z,9.90
2023-05-19T19:58:38.777Z,10.00
2023-05-19T20:57:29.618Z,10.70
2023-05-19T21:00:24.159Z,10.60
2023-05-19T21:03:27.740Z,10.80
2023-05-19T21:10:12.349Z,9.30
2023-05-19T21:16:42.410Z,8.60
2023-05-19T21:31:55.559Z,11.20
2023-05-19T21:34:24.797Z,8.40
2023-05-19T21:37:23.651Z,9.10
2023-05-19T21:44:06.205Z,12.70
2023-05-19T21:47:20.636Z,9.30
2023-05-19T21:53:25.389Z,13.60
2023-05-19T21:56:11.755Z,9.30
2023-05-19T21:58:46.906Z,14.10
2023-05-19T22:01:17.418Z,13.70
2023-05-19T22:04:20.969Z,12.20
2023-05-19T22:09:46.972Z,13.20
2023-05-19T22:12:30.465Z,9.60
